createdAt,value
2019-03-28T00:01:37.388Z,88.82
2019-03-28T00:05:42.119Z,89.14
2019-03-28T00:09:45.654Z,89.50
2019-03-28T00:13:49.016Z,89.47
2019-03-28T00:17:52.659Z,89.46
2019-03-28T00:21:56.043Z,89.45
2019-03-28T00:25:59.709Z,89.30
2019-03-28T00:30:05.229Z,89.42
2019-03-28T00:34:10.185Z,89.58
2019-03-28T00:38:13.900Z,89.86
2019-03-28T00:42:17.422Z,89.76
2019-03-28T00:46:21.202Z,89.80
2019-03-28T00:50:25.792Z,89.82
2019-03-28T00:54:30.314Z,89.91
2019-03-28T00:58:34.257Z,89.96
2019-03-28T01:02:37.989Z,89.91
2019-03-28T01:06:41.706Z,89.94
2019-03-28T01:10:45.688Z,89.82
2019-03-28T01:14:49.192Z,89.88
2019-03-28T01:18:53.931Z,89.93
2019-03-28T01:22:57.473Z,90.07
2019-03-28T01:27:01.198Z,90.13
2019-03-28T01:31:05.037Z,90.07
2019-03-28T01:35:09.849Z,90.18
2019-03-28T01:39:13.693Z,89.92
2019-03-28T01:43:17.236Z,89.96
2019-03-28T01:47:21.019Z,90.04
2019-03-28T01:51:24.486Z,90.17
2019-03-28T01:55:28.106Z,90.28
2019-03-28T01:59:31.676Z,90.26
2019-03-28T02:03:35.299Z,90.18
2019-03-28T02:07:38.789Z,90.10
2019-03-28T02:11:42.320Z,90.19
2019-03-28T02:15:45.775Z,90.25
2019-03-28T02:19:49.403Z,90.41
2019-03-28T02:23:52.887Z,90.30
2019-03-28T02:27:56.473Z,90.31
2019-03-28T02:32:00.386Z,90.37
2019-03-28T02:36:03.853Z,90.41
2019-03-28T02:40:08.354Z,90.47
2019-03-28T02:44:12.237Z,90.53
2019-03-28T02:48:15.944Z,90.48
2019-03-28T02:52:21.543Z,90.73
2019-03-28T02:56:25.386Z,90.69
2019-03-28T03:00:28.992Z,90.72
2019-03-28T03:04:32.603Z,90.68
2019-03-28T03:08:36.175Z,90.71
2019-03-28T03:12:39.627Z,90.67
2019-03-28T03:16:43.207Z,90.51
2019-03-28T03:20:46.915Z,90.62
2019-03-28T03:24:53.714Z,90.62
2019-03-28T03:28:57.145Z,90.58
2019-03-28T03:33:02.220Z,90.62
2019-03-28T03:37:05.867Z,90.87
2019-03-28T03:41:09.367Z,90.93
2019-03-28T03:45:13.054Z,90.92
2019-03-28T03:49:18.175Z,90.91
2019-03-28T03:53:21.700Z,90.77
2019-03-28T03:57:25.423Z,91.00
2019-03-28T04:01:29.085Z,90.81
2019-03-28T04:05:33.034Z,90.69
2019-03-28T04:09:36.582Z,90.71
2019-03-28T04:13:40.183Z,90.82
2019-03-28T04:17:43.875Z,91.58
2019-03-28T04:21:47.586Z,91.40
2019-03-28T04:25:51.215Z,91.14
2019-03-28T04:29:54.943Z,91.11
2019-03-28T04:33:58.435Z,91.21
2019-03-28T04:38:02.066Z,91.17
2019-03-28T04:42:05.489Z,91.10
2019-03-28T04:46:09.126Z,91.09
2019-03-28T04:50:12.588Z,90.82
2019-03-28T04:54:16.390Z,90.75
2019-03-28T04:58:21.752Z,90.64
2019-03-28T05:02:26.204Z,90.52
2019-03-28T05:06:29.689Z,90.39
2019-03-28T05:10:33.388Z,90.24
2019-03-28T05:14:37.033Z,90.25
2019-03-28T05:18:40.625Z,90.25
2019-03-28T05:22:43.988Z,90.01
2019-03-28T05:26:47.395Z,89.98
2019-03-28T05:30:50.811Z,89.96
2019-03-28T05:34:55.096Z,90.09
2019-03-28T05:38:58.535Z,90.05
2019-03-28T05:43:02.101Z,89.93
2019-03-28T05:47:05.550Z,89.85
2019-03-28T05:51:08.982Z,89.73
2019-03-28T05:55:12.419Z,89.66
2019-03-28T05:59:15.872Z,89.54
2019-03-28T06:03:19.226Z,89.51
2019-03-28T06:07:22.649Z,89.62
2019-03-28T06:11:26.057Z,89.71
2019-03-28T06:15:29.629Z,89.62
2019-03-28T06:19:33.096Z,89.66
2019-03-28T06:23:36.537Z,89.31
2019-03-28T06:27:39.834Z,88.94
2019-03-28T06:31:54.765Z,88.01
2019-03-28T06:35:48.553Z,87.07
2019-03-28T06:39:52.080Z,86.40
2019-03-28T06:43:55.397Z,86.04
2019-03-28T06:47:58.788Z,85.43
2019-03-28T06:52:02.258Z,85.38
2019-03-28T06:56:06.159Z,85.48
2019-03-28T07:00:11.183Z,85.55
2019-03-28T07:04:15.073Z,85.25
2019-03-28T07:08:18.384Z,85.46
2019-03-28T07:12:22.718Z,85.30
2019-03-28T07:16:25.999Z,85.44
2019-03-28T07:20:29.368Z,85.05
2019-03-28T07:24:32.908Z,83.47
2019-03-28T07:28:36.254Z,82.38
2019-03-28T07:32:43.000Z,82.27
2019-03-28T07:36:45.144Z,81.96
2019-03-28T07:40:48.455Z,81.23
2019-03-28T07:44:51.809Z,81.94
2019-03-28T07:48:55.175Z,81.15
2019-03-28T07:53:00.639Z,80.04
2019-03-28T07:57:03.998Z,79.39
2019-03-28T08:01:07.572Z,78.50
2019-03-28T08:05:11.624Z,76.56
2019-03-28T08:09:17.532Z,75.94
2019-03-28T08:13:20.055Z,74.43
2019-03-28T08:17:23.437Z,72.43
2019-03-28T08:21:26.787Z,70.62
2019-03-28T08:25:30.158Z,69.38
2019-03-28T08:29:33.416Z,68.26
2019-03-28T08:33:39.119Z,67.54
2019-03-28T08:37:42.882Z,67.00
2019-03-28T08:41:48.725Z,67.47
2019-03-28T08:45:51.244Z,66.00
2019-03-28T08:49:55.029Z,65.29
2019-03-28T08:53:58.364Z,65.60
2019-03-28T08:58:01.925Z,64.02
2019-03-28T09:02:05.258Z,63.08
2019-03-28T09:06:08.624Z,63.62
2019-03-28T09:10:12.200Z,63.23
2019-03-28T09:14:15.689Z,61.63
2019-03-28T09:18:18.959Z,60.65
2019-03-28T09:22:22.338Z,59.98
2019-03-28T09:26:25.654Z,59.99
2019-03-28T09:30:48.780Z,58.58
2019-03-28T09:34:47.629Z,58.02
2019-03-28T09:38:51.080Z,59.21
2019-03-28T09:42:54.687Z,57.37
2019-03-28T09:46:58.066Z,58.20
2019-03-28T09:51:01.439Z,57.55
2019-03-28T09:55:05.009Z,56.71
2019-03-28T09:59:08.293Z,57.21
2019-03-28T10:03:11.644Z,56.79
2019-03-28T10:07:14.929Z,57.06
2019-03-28T10:11:18.289Z,56.83
2019-03-28T10:15:21.563Z,56.68
2019-03-28T10:19:25.071Z,56.34
2019-03-28T10:23:28.350Z,55.80
2019-03-28T10:27:31.694Z,56.36
2019-03-28T10:31:35.514Z,55.13
2019-03-28T10:35:38.943Z,55.01
2019-03-28T10:39:42.284Z,54.82
2019-03-28T10:43:45.634Z,55.54
2019-03-28T10:47:49.294Z,55.18
2019-03-28T10:51:52.916Z,55.89
2019-03-28T10:55:56.210Z,54.78
2019-03-28T11:00:01.406Z,54.15
2019-03-28T11:04:04.944Z,53.47
2019-03-28T11:08:08.320Z,53.49
2019-03-28T11:12:11.735Z,53.93
2019-03-28T11:16:15.373Z,53.72
2019-03-28T11:20:19.818Z,52.52
2019-03-28T11:24:23.317Z,52.79
2019-03-28T11:28:26.612Z,52.25
2019-03-28T11:32:29.943Z,51.81
2019-03-28T11:36:33.232Z,52.14
2019-03-28T11:40:36.614Z,52.79
2019-03-28T11:44:39.895Z,53.79
2019-03-28T11:48:43.278Z,54.83
2019-03-28T11:52:47.879Z,54.91
2019-03-28T11:56:51.505Z,55.55
2019-03-28T12:00:54.854Z,55.17
2019-03-28T12:04:58.298Z,54.83
2019-03-28T12:09:01.616Z,53.76
2019-03-28T12:13:06.578Z,52.07
2019-03-28T12:17:09.924Z,51.53
2019-03-28T12:21:13.349Z,53.11
2019-03-28T12:25:16.737Z,50.96
2019-03-28T12:29:20.160Z,51.15
2019-03-28T12:33:23.438Z,51.63
2019-03-28T12:37:26.855Z,51.05
2019-03-28T12:41:30.133Z,50.53
2019-03-28T12:45:33.458Z,50.06
2019-03-28T12:49:36.864Z,51.08
2019-03-28T12:53:40.732Z,49.97
2019-03-28T12:57:44.091Z,49.35
2019-03-28T13:01:48.645Z,48.39
2019-03-28T13:05:52.077Z,48.01
2019-03-28T13:09:55.432Z,46.24
2019-03-28T13:13:58.787Z,45.53
2019-03-28T13:18:03.251Z,46.32
2019-03-28T13:22:06.548Z,45.79
2019-03-28T13:26:10.075Z,46.65
2019-03-28T13:30:14.378Z,46.35
2019-03-28T13:34:17.826Z,45.08
2019-03-28T13:38:22.335Z,44.11
2019-03-28T13:42:26.002Z,45.66
2019-03-28T13:46:29.330Z,45.59
2019-03-28T13:50:33.009Z,45.22
2019-03-28T13:54:36.486Z,44.97
2019-03-28T13:58:40.273Z,44.50
2019-03-28T14:02:55.574Z,44.89
2019-03-28T14:06:49.148Z,45.30
2019-03-28T14:10:52.870Z,43.79
2019-03-28T14:14:57.986Z,44.38
2019-03-28T14:19:06.285Z,44.29
2019-03-28T14:23:11.009Z,43.49
2019-03-28T14:27:15.365Z,44.44
2019-03-28T14:31:18.752Z,45.43
2019-03-28T14:35:22.075Z,45.36
2019-03-28T14:39:27.952Z,46.25
2019-03-28T14:43:31.311Z,47.57
2019-03-28T14:47:34.635Z,48.47
2019-03-28T14:51:38.986Z,48.38
2019-03-28T14:55:42.485Z,48.17
2019-03-28T14:59:47.694Z,47.87
2019-03-28T15:03:51.107Z,46.72
2019-03-28T15:07:54.364Z,44.58
2019-03-28T15:11:57.822Z,43.13
2019-03-28T15:16:01.035Z,43.99
2019-03-28T15:20:04.888Z,47.23
2019-03-28T15:24:09.233Z,47.52
2019-03-28T15:28:12.706Z,46.81
2019-03-28T15:32:15.990Z,46.47
2019-03-28T15:36:23.241Z,45.67
2019-03-28T15:40:26.945Z,46.40
2019-03-28T15:44:30.349Z,46.91
2019-03-28T15:48:33.669Z,51.14
2019-03-28T15:52:37.008Z,53.56
2019-03-28T15:56:41.328Z,54.59
2019-03-28T16:00:44.661Z,55.91
2019-03-28T16:04:47.945Z,56.75
2019-03-28T16:08:51.298Z,57.30
2019-03-28T16:12:54.965Z,57.85
2019-03-28T16:16:58.551Z,58.16
2019-03-28T16:21:01.803Z,58.29
2019-03-28T16:25:07.141Z,59.54
2019-03-28T16:29:11.530Z,60.36
2019-03-28T16:33:15.129Z,60.53
2019-03-28T16:37:18.408Z,61.87
2019-03-28T16:41:21.837Z,61.97
2019-03-28T16:45:25.260Z,63.28
2019-03-28T16:49:28.755Z,64.33
2019-03-28T16:53:32.192Z,63.62
2019-03-28T16:57:35.633Z,64.52
2019-03-28T17:01:39.104Z,65.13
2019-03-28T17:05:43.176Z,65.82
2019-03-28T17:09:48.061Z,65.67
2019-03-28T17:13:51.421Z,66.27
2019-03-28T17:17:56.004Z,65.62
2019-03-28T17:22:01.185Z,66.70
2019-03-28T17:26:05.947Z,66.74
2019-03-28T17:30:12.762Z,68.15
2019-03-28T17:34:34.045Z,68.86
2019-03-28T17:38:27.223Z,68.26
2019-03-28T17:42:31.464Z,69.32
2019-03-28T17:46:35.633Z,69.01
2019-03-28T17:50:39.582Z,69.40
2019-03-28T17:54:46.239Z,69.88
2019-03-28T17:58:51.064Z,70.71
2019-03-28T18:03:08.334Z,71.24
2019-03-28T18:07:03.883Z,71.67
2019-03-28T18:11:10.424Z,71.61
2019-03-28T18:15:15.552Z,71.62
2019-03-28T18:19:21.325Z,71.06
2019-03-28T18:23:25.745Z,70.74
2019-03-28T18:27:31.019Z,71.37
2019-03-28T18:31:49.782Z,71.39
2019-03-28T18:35:49.206Z,71.44
2019-03-28T18:39:54.937Z,71.58
2019-03-28T18:43:58.466Z,71.26
2019-03-28T18:48:01.736Z,72.11
2019-03-28T18:52:07.398Z,72.34
2019-03-28T18:56:10.221Z,72.26
2019-03-28T19:00:14.611Z,72.66
2019-03-28T19:04:18.120Z,72.83
2019-03-28T19:08:21.472Z,72.82
2019-03-28T19:12:24.807Z,72.86
2019-03-28T19:16:28.224Z,72.42
2019-03-28T19:20:33.199Z,72.81
2019-03-28T19:24:37.057Z,72.96
2019-03-28T19:28:40.349Z,73.28
2019-03-28T19:32:43.885Z,73.07
2019-03-28T19:36:47.217Z,73.33
2019-03-28T19:40:52.424Z,73.38
2019-03-28T19:44:57.162Z,73.46
2019-03-28T19:49:00.585Z,74.15
2019-03-28T19:53:06.525Z,73.76
2019-03-28T19:57:10.043Z,73.62
2019-03-28T20:01:13.330Z,74.26
2019-03-28T20:05:16.908Z,74.29
2019-03-28T20:09:20.144Z,74.54
2019-03-28T20:13:23.949Z,74.03
2019-03-28T20:17:27.664Z,73.99
2019-03-28T20:21:31.028Z,74.42
2019-03-28T20:25:34.339Z,74.70
2019-03-28T20:29:39.929Z,74.79
2019-03-28T20:33:42.726Z,74.28
2019-03-28T20:37:46.118Z,74.70
2019-03-28T20:41:49.429Z,74.67
2019-03-28T20:45:54.538Z,74.57
2019-03-28T20:49:57.953Z,75.29
2019-03-28T20:54:01.312Z,75.52
2019-03-28T20:58:04.697Z,75.99
2019-03-28T21:02:08.156Z,76.37
2019-03-28T21:06:15.865Z,76.22
2019-03-28T21:10:27.144Z,76.75
2019-03-28T21:14:30.429Z,77.56
2019-03-28T21:18:33.829Z,77.37
2019-03-28T21:22:37.128Z,77.92
2019-03-28T21:26:41.074Z,78.09
2019-03-28T21:30:47.496Z,78.41
2019-03-28T21:34:49.845Z,77.93
2019-03-28T21:38:53.155Z,78.01
2019-03-28T21:42:56.731Z,77.90
2019-03-28T21:47:03.107Z,77.69
2019-03-28T21:51:06.463Z,77.97
2019-03-28T21:55:11.622Z,78.31
2019-03-28T21:59:15.267Z,78.32
2019-03-28T22:03:18.543Z,78.63
2019-03-28T22:07:21.887Z,79.01
2019-03-28T22:11:25.140Z,79.95
2019-03-28T22:15:28.488Z,79.48
2019-03-28T22:19:31.750Z,79.31
2019-03-28T22:23:35.164Z,79.58
2019-03-28T22:27:38.473Z,79.66
2019-03-28T22:31:41.828Z,79.97
2019-03-28T22:35:45.102Z,80.39
2019-03-28T22:39:48.424Z,80.83
2019-03-28T22:43:51.711Z,80.40
2019-03-28T22:47:55.212Z,80.92
2019-03-28T22:51:58.492Z,81.17
2019-03-28T22:56:01.939Z,81.45
2019-03-28T23:00:06.422Z,81.41
2019-03-28T23:04:12.243Z,82.04
2019-03-28T23:08:17.309Z,81.98
2019-03-28T23:12:20.653Z,82.80
2019-03-28T23:16:23.929Z,83.00
2019-03-28T23:20:27.281Z,82.85
2019-03-28T23:24:30.550Z,83.72
2019-03-28T23:28:33.984Z,83.41
2019-03-28T23:32:38.738Z,83.58
2019-03-28T23:36:42.262Z,83.96
2019-03-28T23:40:45.484Z,84.41
2019-03-28T23:44:48.786Z,84.30
2019-03-28T23:48:53.799Z,84.37
2019-03-28T23:52:57.118Z,84.40
2019-03-28T23:57:00.396Z,84.74
